Time;durP1;ratioP1;P1;durP2;ratioP2;P2;SDS_P1;SDS_P2;PMS_P1;PMS_P2;Temp;Humidity;BMP_temperature;BMP_pressure;BME280_temperature;BME280_humidity;BME280_pressure;Samples;Min_cycle;Max_cycle;Signal;HPM_P1;HPM_P2
2023/06/16 00:01:35;;;;;;;0.50;0.20;;;;;;;16.21;77.17;100284.63;5032855;28;20506;-49
2023/06/16 00:04:03;;;;;;;0.50;0.20;;;;;;;16.23;76.67;100284.53;5032314;28;20498;-49
2023/06/16 00:06:30;;;;;;;0.50;0.20;;;;;;;15.95;77.05;100279.72;5032749;28;20666;-50
2023/06/16 00:08:58;;;;;;;0.50;0.20;;;;;;;15.94;77.71;100286.03;5032186;28;20470;-48
2023/06/16 00:11:27;;;;;;;0.50;0.20;;;;;;;15.68;78.39;100290.03;5032601;28;20479;-48
2023/06/16 00:13:55;;;;;;;0.50;0.20;;;;;;;15.65;78.76;100290.19;5032660;28;20873;-49
2023/06/16 00:16:23;;;;;;;0.40;0.20;;;;;;;15.68;78.13;100293.56;5032368;28;20474;-48
2023/06/16 00:18:57;;;;;;;0.40;0.20;;;;;;;15.50;79.19;100289.09;5032970;28;20471;-48
2023/06/16 00:21:25;;;;;;;0.40;0.20;;;;;;;15.46;79.67;100289.31;5032307;28;20458;-49
2023/06/16 00:23:56;;;;;;;0.50;0.20;;;;;;;15.24;80.07;100294.84;5032484;28;20495;-49
2023/06/16 00:26:23;;;;;;;0.40;0.20;;;;;;;15.32;79.09;100295.31;5032207;28;20608;-49
2023/06/16 00:28:49;;;;;;;0.40;0.20;;;;;;;15.29;78.73;100292.78;5032370;28;20471;-49
2023/06/16 00:31:16;;;;;;;0.40;0.20;;;;;;;15.50;78.12;100294.47;5032529;28;20490;-49
2023/06/16 00:33:42;;;;;;;0.50;0.20;;;;;;;15.38;79.00;100295.91;5032546;28;20470;-49
2023/06/16 00:36:09;;;;;;;0.40;0.20;;;;;;;15.29;78.66;100293.66;5032226;28;20534;-50
2023/06/16 00:38:35;;;;;;;0.50;0.20;;;;;;;15.31;79.01;100296.25;5032414;28;20467;-49
2023/06/16 00:41:02;;;;;;;0.40;0.20;;;;;;;15.04;80.14;100303.78;5028519;28;20498;-48
2023/06/16 00:43:28;;;;;;;0.50;0.20;;;;;;;15.08;80.01;100303.59;5032152;28;20470;-50
2023/06/16 00:45:55;;;;;;;0.40;0.20;;;;;;;15.10;79.48;100303.53;5033433;28;20495;-51
2023/06/16 00:48:21;;;;;;;0.40;0.20;;;;;;;15.07;79.58;100306.31;5033494;28;20496;-50
2023/06/16 00:50:49;;;;;;;0.40;0.20;;;;;;;14.92;80.59;100302.56;5027690;28;20506;-51
2023/06/16 00:53:16;;;;;;;0.40;0.20;;;;;;;14.87;80.43;100299.22;5033068;28;20463;-50
2023/06/16 00:55:43;;;;;;;0.40;0.20;;;;;;;14.96;80.53;100308.66;5032932;28;20849;-50
2023/06/16 00:58:10;;;;;;;0.40;0.30;;;;;;;14.98;80.22;100298.75;5033179;28;20467;-49
2023/06/16 01:00:37;;;;;;;0.40;0.20;;;;;;;15.33;79.46;100294.38;5033345;28;20499;-50
2023/06/16 01:03:04;;;;;;;0.50;0.30;;;;;;;14.90;80.55;100301.75;5033258;28;20470;-51
2023/06/16 01:05:32;;;;;;;0.40;0.20;;;;;;;14.79;80.73;100309.41;5033014;28;20530;-51
2023/06/16 01:08:09;;;;;;;0.40;0.20;;;;;;;14.79;80.96;100302.25;5033047;28;20468;-51
2023/06/16 01:10:41;;;;;;;0.40;0.20;;;;;;;14.84;81.33;100302.06;5033572;28;20463;-51
2023/06/16 01:13:30;;;;;;;0.40;0.20;;;;;;;14.71;81.34;100306.22;5032969;28;20466;-49
2023/06/16 01:16:01;;;;;;;0.40;0.20;;;;;;;14.36;82.43;100297.91;5033268;28;20848;-51
2023/06/16 01:18:31;;;;;;;0.40;0.20;;;;;;;14.41;82.33;100298.59;5033258;28;20471;-51
2023/06/16 01:21:26;;;;;;;0.50;0.20;;;;;;;14.46;82.25;100293.94;5037137;28;20975;-51
2023/06/16 01:24:07;;;;;;;0.40;0.20;;;;;;;14.13;83.10;100300.75;5037023;28;20838;-50
2023/06/16 01:26:37;;;;;;;0.40;0.20;;;;;;;13.75;85.17;100299.69;5036845;28;20944;-50
2023/06/16 01:29:06;;;;;;;0.40;0.20;;;;;;;13.85;84.39;100309.06;5036900;28;20467;-50
2023/06/16 01:31:34;;;;;;;0.40;0.20;;;;;;;13.94;84.28;100311.34;5036384;28;20471;-50
2023/06/16 01:34:02;;;;;;;0.40;0.20;;;;;;;13.93;84.06;100299.78;5037182;28;20529;-51
2023/06/16 01:36:31;;;;;;;0.40;0.20;;;;;;;13.96;84.19;100300.56;5036544;28;20473;-50
2023/06/16 01:39:00;;;;;;;0.80;0.80;;;;;;;13.72;85.63;100303.38;5018834;28;20505;-51
2023/06/16 01:41:27;;;;;;;0.40;0.20;;;;;;;13.78;84.57;100305.75;5036343;28;20578;-50
2023/06/16 01:43:55;;;;;;;0.40;0.20;;;;;;;13.82;84.66;100302.03;5036409;28;20467;-50
2023/06/16 01:46:23;;;;;;;0.40;0.20;;;;;;;13.65;85.75;100315.22;5036139;28;20883;-50
2023/06/16 01:48:51;;;;;;;0.40;0.20;;;;;;;13.56;86.66;100312.91;5036432;28;20546;-50
2023/06/16 01:51:18;;;;;;;0.40;0.20;;;;;;;13.71;86.08;100309.63;5036343;28;20493;-50
2023/06/16 01:53:45;;;;;;;1.90;1.77;;;;;;;13.67;85.78;100310.69;5036109;28;20493;-50
2023/06/16 01:56:11;;;;;;;0.40;0.20;;;;;;;13.65;86.26;100309.88;5035912;28;20493;-49
2023/06/16 01:58:38;;;;;;;0.40;0.20;;;;;;;13.59;85.92;100310.13;5036018;28;20467;-50
2023/06/16 02:01:21;;;;;;;0.40;0.20;;;;;;;13.52;86.35;100312.16;5036043;28;20532;-51
2023/06/16 02:03:52;;;;;;;0.40;0.20;;;;;;;13.65;85.95;100320.56;5031822;28;20557;-49
2023/06/16 02:06:26;;;;;;;0.60;0.60;;;;;;;13.41;88.00;100313.53;5035881;28;20468;-50
2023/06/16 02:08:56;;;;;;;0.40;0.20;;;;;;;13.25;88.29;100307.94;5035724;28;20466;-50
2023/06/16 02:11:24;;;;;;;0.40;0.20;;;;;;;13.09;88.33;100306.75;5035112;28;20841;-50
2023/06/16 02:13:51;;;;;;;0.40;0.20;;;;;;;13.25;88.47;100308.78;5035354;28;20475;-51
2023/06/16 02:16:19;;;;;;;0.40;0.20;;;;;;;13.11;88.58;100312.91;5035062;28;20477;-50
2023/06/16 02:18:45;;;;;;;0.40;0.20;;;;;;;13.11;88.41;100310.22;5034987;28;20968;-50
2023/06/16 02:21:12;;;;;;;0.40;0.20;;;;;;;12.97;88.61;100311.63;5034590;28;20467;-49
2023/06/16 02:23:38;;;;;;;0.40;0.20;;;;;;;13.06;88.77;100305.09;5035176;28;20494;-50
2023/06/16 02:26:05;;;;;;;0.40;0.20;;;;;;;13.17;87.80;100313.56;5034740;28;20545;-50
2023/06/16 02:28:33;;;;;;;0.40;0.20;;;;;;;13.21;88.24;100298.31;5026831;28;20473;-50
2023/06/16 02:30:59;;;;;;;0.40;0.20;;;;;;;13.05;88.15;100312.22;5033797;28;20468;-50
2023/06/16 02:33:27;;;;;;;0.40;0.30;;;;;;;13.13;88.62;100306.56;5034783;28;20533;-50
2023/06/16 02:35:53;;;;;;;0.40;0.20;;;;;;;13.23;87.36;100305.31;5034410;28;20479;-50
2023/06/16 02:38:20;;;;;;;0.40;0.20;;;;;;;13.25;87.20;100307.94;5034703;28;20481;-50
2023/06/16 02:40:46;;;;;;;0.40;0.20;;;;;;;12.90;88.99;100306.59;5034519;28;20498;-50
2023/06/16 02:43:13;;;;;;;0.40;0.20;;;;;;;12.90;88.37;100310.13;5034267;28;20471;-50
2023/06/16 02:45:40;;;;;;;0.40;0.20;;;;;;;12.92;88.02;100312.75;5034225;28;20499;-50
2023/06/16 02:48:07;;;;;;;0.40;0.20;;;;;;;12.99;87.80;100309.75;5034272;28;20537;-50
2023/06/16 02:50:33;;;;;;;0.40;0.20;;;;;;;12.95;87.91;100308.16;5034196;28;20556;-50
2023/06/16 02:53:00;;;;;;;0.40;0.20;;;;;;;12.83;88.85;100310.41;5034445;28;20506;-50
2023/06/16 02:55:26;;;;;;;0.40;0.20;;;;;;;12.90;88.32;100311.94;5034190;28;20544;-50
2023/06/16 02:57:53;;;;;;;0.40;0.20;;;;;;;12.71;88.46;100315.25;5034259;28;20468;-50
2023/06/16 03:00:19;;;;;;;0.40;0.20;;;;;;;12.71;88.99;100309.94;5034046;28;20467;-50
2023/06/16 03:02:46;;;;;;;0.40;0.20;;;;;;;12.54;89.67;100312.34;5034100;28;20562;-50
2023/06/16 03:05:15;;;;;;;0.40;0.20;;;;;;;12.52;89.92;100313.34;5033627;28;20579;-49
2023/06/16 03:07:42;;;;;;;0.40;0.20;;;;;;;12.51;89.70;100312.47;5033835;28;20558;-49
2023/06/16 03:10:09;;;;;;;0.40;0.20;;;;;;;12.43;90.11;100310.06;5033897;28;20468;-49
2023/06/16 03:12:36;;;;;;;0.40;0.20;;;;;;;12.41;89.69;100311.94;5033793;28;20506;-50
2023/06/16 03:15:03;;;;;;;0.60;0.60;;;;;;;12.25;90.52;100315.19;5033709;28;20567;-50
2023/06/16 03:17:30;;;;;;;0.40;0.20;;;;;;;12.32;89.84;100317.56;5033728;28;20468;-48
2023/06/16 03:19:56;;;;;;;0.40;0.20;;;;;;;12.30;90.44;100315.88;5033954;28;20471;-49
2023/06/16 03:22:23;;;;;;;0.40;0.20;;;;;;;12.25;90.61;100321.41;5033600;28;20467;-49
2023/06/16 03:24:50;;;;;;;0.40;0.20;;;;;;;12.23;90.42;100317.03;5030863;28;21025;-49
2023/06/16 03:27:17;;;;;;;0.40;0.20;;;;;;;12.12;91.75;100315.63;5027113;28;20514;-49
2023/06/16 03:29:43;;;;;;;0.40;0.20;;;;;;;12.35;90.90;100317.50;5033577;28;21061;-49
2023/06/16 03:32:09;;;;;;;0.40;0.20;;;;;;;12.30;91.36;100315.88;5033405;28;20463;-49
2023/06/16 03:34:36;;;;;;;0.40;0.20;;;;;;;12.46;90.66;100314.41;5033699;28;20555;-49
2023/06/16 03:37:03;;;;;;;0.40;0.20;;;;;;;12.29;90.11;100314.16;5033609;28;20471;-49
2023/06/16 03:39:29;;;;;;;0.40;0.20;;;;;;;12.32;91.07;100314.91;5028626;28;20580;-49
2023/06/16 03:41:56;;;;;;;0.40;0.20;;;;;;;12.22;91.84;100315.31;5033315;28;20472;-51
2023/06/16 03:44:22;;;;;;;0.40;0.20;;;;;;;12.20;91.62;100314.47;5033033;28;21049;-50
2023/06/16 03:46:48;;;;;;;0.40;0.20;;;;;;;12.33;91.30;100316.66;5033018;28;20467;-50
2023/06/16 03:49:15;;;;;;;0.40;0.20;;;;;;;12.35;91.02;100316.63;5033376;28;20474;-50
2023/06/16 03:51:42;;;;;;;0.40;0.20;;;;;;;11.93;93.02;100311.84;5032677;28;20467;-49
2023/06/16 03:54:11;;;;;;;0.40;0.20;;;;;;;12.19;93.07;100310.06;5032733;28;21007;-50
2023/06/16 03:56:38;;;;;;;0.40;0.20;;;;;;;12.47;92.38;100313.50;5033041;28;20474;-50
2023/06/16 03:59:05;;;;;;;0.40;0.20;;;;;;;12.66;90.86;100319.91;5032921;28;20482;-50
2023/06/16 04:01:32;;;;;;;0.40;0.20;;;;;;;12.58;91.17;100313.09;5032735;28;20475;-49
2023/06/16 04:03:58;;;;;;;0.40;0.20;;;;;;;12.64;91.36;100328.91;5032402;28;20499;-49
2023/06/16 04:06:25;;;;;;;0.40;0.20;;;;;;;12.29;92.42;100328.34;5033066;28;20526;-50
2023/06/16 04:08:51;;;;;;;0.40;0.20;;;;;;;12.58;92.35;100329.97;5032988;28;20464;-51
2023/06/16 04:11:18;;;;;;;0.40;0.20;;;;;;;12.84;91.73;100329.03;5032893;28;20495;-51
2023/06/16 04:13:44;;;;;;;0.40;0.20;;;;;;;12.67;92.18;100329.66;5032706;28;20517;-50
2023/06/16 04:16:11;;;;;;;0.40;0.20;;;;;;;12.65;92.01;100334.19;5032888;28;20514;-51
2023/06/16 04:18:37;;;;;;;0.40;0.20;;;;;;;12.62;92.76;100333.44;5032837;28;20467;-50
2023/06/16 04:21:04;;;;;;;0.40;0.20;;;;;;;13.16;90.22;100334.97;5032671;28;20467;-50
2023/06/16 04:23:30;;;;;;;0.40;0.20;;;;;;;13.27;90.07;100332.75;5032694;28;20502;-50
2023/06/16 04:25:58;;;;;;;0.40;0.20;;;;;;;13.19;90.34;100341.09;5032206;28;20534;-50
2023/06/16 04:28:25;;;;;;;0.40;0.20;;;;;;;13.52;89.98;100330.88;5032976;28;20468;-51
2023/06/16 04:30:52;;;;;;;0.40;0.20;;;;;;;14.28;87.85;100340.19;5032986;28;20467;-50
2023/06/16 04:33:22;;;;;;;0.40;0.20;;;;;;;14.85;84.82;100341.25;5033507;28;20464;-51
2023/06/16 04:35:50;;;;;;;0.40;0.20;;;;;;;15.46;82.60;100325.00;5032898;28;20506;-50
2023/06/16 04:38:18;;;;;;;0.40;0.20;;;;;;;16.06;79.58;100324.78;5033472;28;20474;-50
2023/06/16 04:40:44;;;;;;;0.40;0.20;;;;;;;16.54;77.82;100326.72;5032619;28;20487;-50
2023/06/16 04:43:11;;;;;;;0.40;0.20;;;;;;;17.00;76.19;100327.88;5033562;28;20463;-49
2023/06/16 04:45:37;;;;;;;0.40;0.20;;;;;;;17.18;74.83;100324.16;5032955;28;21047;-50
2023/06/16 04:48:04;;;;;;;0.40;0.20;;;;;;;17.28;74.58;100332.59;5032950;28;20554;-50
2023/06/16 04:50:31;;;;;;;0.40;0.20;;;;;;;17.50;73.78;100326.88;5032631;28;20885;-49
2023/06/16 04:52:58;;;;;;;0.40;0.20;;;;;;;17.54;73.20;100331.09;5031988;28;20491;-49
2023/06/16 04:55:26;;;;;;;0.50;0.20;;;;;;;17.91;72.48;100334.41;5031367;28;20480;-49
2023/06/16 04:57:52;;;;;;;0.40;0.20;;;;;;;18.31;70.66;100331.09;5032391;28;20463;-48
2023/06/16 05:00:19;;;;;;;0.40;0.20;;;;;;;18.37;69.96;100334.41;5032212;28;20502;-49
2023/06/16 05:02:46;;;;;;;0.40;0.20;;;;;;;18.68;68.39;100323.53;5031910;28;20463;-48
2023/06/16 05:05:12;;;;;;;0.50;0.20;;;;;;;18.74;67.72;100336.59;5032069;28;20606;-48
2023/06/16 05:07:38;;;;;;;0.40;0.20;;;;;;;18.82;67.46;100328.06;5032003;28;20494;-49
2023/06/16 05:10:06;;;;;;;0.47;0.20;;;;;;;19.27;65.30;100331.50;5031724;28;20474;-48
2023/06/16 05:12:32;;;;;;;0.43;0.20;;;;;;;19.14;65.62;100339.50;5032116;28;20473;-49
2023/06/16 05:14:59;;;;;;;0.40;0.20;;;;;;;19.19;65.13;100340.97;5032070;28;20494;-48
2023/06/16 05:17:26;;;;;;;0.50;0.20;;;;;;;19.42;65.01;100328.69;5031861;28;20521;-49
2023/06/16 05:19:52;;;;;;;0.40;0.20;;;;;;;19.17;65.03;100333.91;5031859;28;20463;-49
2023/06/16 05:22:23;;;;;;;0.50;0.20;;;;;;;19.75;63.74;100336.47;5014328;28;20463;-49
2023/06/16 05:24:54;;;;;;;0.40;0.20;;;;;;;19.48;62.79;100331.00;5029403;28;20484;-49
2023/06/16 05:27:22;;;;;;;0.67;0.67;;;;;;;19.53;63.72;100330.69;5026106;28;20463;-49
2023/06/16 05:29:51;;;;;;;0.50;0.30;;;;;;;20.31;61.10;100331.78;5031576;28;20467;-49
2023/06/16 05:32:19;;;;;;;0.50;0.20;;;;;;;19.80;62.18;100337.00;5031702;28;20486;-49
2023/06/16 05:34:47;;;;;;;0.50;0.20;;;;;;;20.24;60.83;100333.16;5031616;28;20487;-49
2023/06/16 05:37:17;;;;;;;0.50;0.20;;;;;;;20.35;59.58;100338.72;5031584;28;20499;-50
2023/06/16 05:39:45;;;;;;;0.40;0.20;;;;;;;20.24;61.54;100333.16;5031640;28;20463;-49
2023/06/16 05:42:13;;;;;;;0.43;0.20;;;;;;;20.32;60.29;100336.22;5031740;28;20478;-48
2023/06/16 05:44:41;;;;;;;0.50;0.20;;;;;;;20.75;58.81;100332.41;5031574;28;20491;-49
2023/06/16 05:47:08;;;;;;;0.40;0.20;;;;;;;20.61;59.43;100336.09;5031728;28;20459;-49
2023/06/16 05:49:34;;;;;;;0.50;0.20;;;;;;;20.78;59.29;100332.19;5031464;28;20489;-49
2023/06/16 05:52:02;;;;;;;0.50;0.20;;;;;;;20.84;58.34;100332.66;5031467;28;20558;-49
2023/06/16 05:54:28;;;;;;;0.50;0.20;;;;;;;20.86;58.94;100328.00;5031548;28;20562;-49
2023/06/16 05:56:59;;;;;;;0.40;0.20;;;;;;;20.84;58.90;100337.19;5031193;28;20961;-49
2023/06/16 05:59:26;;;;;;;0.50;0.20;;;;;;;20.43;60.22;100340.06;5013765;28;20517;-49
2023/06/16 06:01:53;;;;;;;0.50;0.20;;;;;;;20.53;60.77;100341.13;5031285;28;20525;-49
2023/06/16 06:04:25;;;;;;;0.50;0.30;;;;;;;21.12;58.46;100338.78;5031075;28;20483;-49
2023/06/16 06:06:52;;;;;;;0.50;0.20;;;;;;;20.73;59.10;100346.03;5033502;28;20491;-49
2023/06/16 06:09:19;;;;;;;0.50;0.20;;;;;;;21.04;58.76;100344.75;5035207;28;20475;-49
2023/06/16 06:11:45;;;;;;;0.43;0.20;;;;;;;21.37;57.17;100346.00;5034918;28;20846;-49
2023/06/16 06:14:12;;;;;;;0.50;0.20;;;;;;;21.40;58.11;100353.94;5034992;28;20554;-49
2023/06/16 06:16:38;;;;;;;0.50;0.20;;;;;;;21.41;57.09;100351.09;5034844;28;20507;-49
2023/06/16 06:19:05;;;;;;;0.50;0.20;;;;;;;21.05;58.31;100356.41;5035049;28;20467;-49
2023/06/16 06:21:33;;;;;;;0.47;0.20;;;;;;;21.20;58.38;100355.31;5034917;28;20522;-49
2023/06/16 06:24:00;;;;;;;0.50;0.20;;;;;;;21.43;58.15;100361.81;5034680;28;20467;-49
2023/06/16 06:26:27;;;;;;;0.47;0.20;;;;;;;21.48;58.34;100365.91;5034591;28;20491;-48
2023/06/16 06:28:53;;;;;;;0.50;0.20;;;;;;;21.20;58.45;100367.00;5034986;28;20468;-48
2023/06/16 06:31:20;;;;;;;0.50;0.20;;;;;;;21.67;57.43;100361.88;5034381;28;20513;-48
2023/06/16 06:33:47;;;;;;;0.50;0.20;;;;;;;21.69;57.54;100370.75;5034430;28;20499;-49
2023/06/16 06:36:23;;;;;;;0.50;0.20;;;;;;;21.92;57.15;100375.28;5034432;28;20483;-50
2023/06/16 06:38:50;;;;;;;0.50;0.40;;;;;;;21.84;57.20;100375.03;5034295;28;20826;-49
2023/06/16 06:41:17;;;;;;;0.50;0.20;;;;;;;22.25;56.50;100376.50;5034403;28;20490;-49
2023/06/16 06:43:44;;;;;;;0.50;0.20;;;;;;;21.92;55.55;100378.00;5033898;28;20459;-49
2023/06/16 06:46:10;;;;;;;0.50;0.20;;;;;;;21.98;55.85;100379.41;5017023;28;20507;-49
2023/06/16 06:48:37;;;;;;;0.50;0.20;;;;;;;22.26;55.23;100383.66;5034399;28;20475;-49
2023/06/16 06:51:03;;;;;;;0.50;0.20;;;;;;;22.02;54.79;100386.31;5034146;28;20893;-49
2023/06/16 06:53:31;;;;;;;0.50;0.20;;;;;;;22.16;55.06;100384.31;5034040;28;21045;-49
2023/06/16 06:55:57;;;;;;;0.50;0.20;;;;;;;22.13;52.30;100381.00;5033993;28;21023;-49
2023/06/16 06:58:24;;;;;;;0.50;0.20;;;;;;;22.54;51.00;100380.56;5033938;28;20910;-49
2023/06/16 07:00:50;;;;;;;0.77;0.77;;;;;;;22.46;52.69;100378.41;5033970;28;20555;-50
2023/06/16 07:03:17;;;;;;;0.50;0.20;;;;;;;22.65;51.96;100385.16;5033762;28;20839;-50
2023/06/16 07:05:44;;;;;;;0.47;0.20;;;;;;;22.35;51.88;100380.25;5035003;28;20534;-50
2023/06/16 07:08:10;;;;;;;0.50;0.20;;;;;;;22.98;50.62;100378.97;5034110;28;20551;-50
2023/06/16 07:10:36;;;;;;;0.50;0.20;;;;;;;23.41;49.91;100380.97;5033710;28;20463;-50
2023/06/16 07:13:06;;;;;;;0.50;0.20;;;;;;;23.53;49.27;100393.56;5033669;28;21036;-50
2023/06/16 07:15:32;;;;;;;0.50;0.20;;;;;;;23.43;49.88;100396.13;5044071;28;20478;-50
2023/06/16 07:17:59;;;;;;;0.50;0.20;;;;;;;23.31;49.09;100389.00;5036163;28;20897;-50
2023/06/16 07:20:25;;;;;;;0.50;0.20;;;;;;;23.31;49.16;100391.72;5033567;28;20468;-50
2023/06/16 07:22:52;;;;;;;0.50;0.20;;;;;;;23.33;49.21;100395.16;5033928;28;20452;-50
2023/06/16 07:25:19;;;;;;;0.50;0.20;;;;;;;23.61;49.53;100391.13;5033152;28;20827;-50
2023/06/16 07:27:45;;;;;;;0.50;0.20;;;;;;;23.52;48.86;100395.41;5033453;28;20470;-50
2023/06/16 07:30:12;;;;;;;0.50;0.20;;;;;;;23.72;48.67;100392.97;5033744;28;20459;-50
2023/06/16 07:32:41;;;;;;;0.50;0.30;;;;;;;23.99;49.27;100392.56;5033769;28;20467;-50
2023/06/16 07:35:08;;;;;;;0.50;0.30;;;;;;;24.11;47.30;100395.09;5033293;28;20836;-50
2023/06/16 07:37:35;;;;;;;0.50;0.30;;;;;;;24.19;47.59;100386.31;5033537;28;20463;-50
2023/06/16 07:40:01;;;;;;;0.50;0.20;;;;;;;24.21;45.76;100389.75;5033270;28;20501;-50
2023/06/16 07:42:31;;;;;;;0.50;0.20;;;;;;;24.52;45.83;100388.06;5033840;28;20976;-50
2023/06/16 07:44:57;;;;;;;0.50;0.20;;;;;;;24.27;45.37;100393.84;5033146;28;21051;-50
2023/06/16 07:47:24;;;;;;;0.50;0.20;;;;;;;24.54;46.60;100383.38;5032982;28;20541;-50
2023/06/16 07:49:50;;;;;;;0.50;0.20;;;;;;;24.67;46.86;100389.50;5033296;28;20551;-50
2023/06/16 07:52:18;;;;;;;0.50;0.20;;;;;;;24.54;44.19;100386.09;5029914;28;20932;-50
2023/06/16 07:54:45;;;;;;;0.50;0.30;;;;;;;24.59;43.88;100385.69;5032874;28;20483;-50
2023/06/16 07:57:12;;;;;;;0.50;0.30;;;;;;;24.72;42.70;100380.94;5033302;28;20521;-50
2023/06/16 07:59:38;;;;;;;0.50;0.20;;;;;;;25.13;41.59;100384.66;5033113;28;20463;-50
2023/06/16 08:02:05;;;;;;;0.50;0.20;;;;;;;24.83;41.32;100378.16;5032879;28;20870;-50
2023/06/16 08:04:32;;;;;;;0.50;0.23;;;;;;;25.11;40.11;100373.91;5015131;28;21049;-50
2023/06/16 08:06:59;;;;;;;0.50;0.27;;;;;;;25.43;38.78;100378.34;5038613;28;20569;-50
2023/06/16 08:09:25;;;;;;;0.50;0.30;;;;;;;25.38;39.51;100381.50;5015267;28;20482;-50
2023/06/16 08:11:52;;;;;;;0.50;0.30;;;;;;;25.48;40.10;100387.81;5039433;28;20458;-50
2023/06/16 08:14:18;;;;;;;0.50;0.30;;;;;;;25.66;39.04;100385.31;5032833;28;20496;-50
2023/06/16 08:16:45;;;;;;;0.50;0.20;;;;;;;25.35;39.65;100376.28;5032864;28;20537;-50
2023/06/16 08:19:11;;;;;;;0.50;0.20;;;;;;;25.66;38.76;100372.56;5014740;28;20856;-50
2023/06/16 08:21:38;;;;;;;0.50;0.20;;;;;;;25.73;37.52;100367.44;5032685;28;20479;-50
2023/06/16 08:24:05;;;;;;;2.00;1.47;;;;;;;25.47;37.83;100366.19;5032378;28;20546;-50
2023/06/16 08:26:32;;;;;;;0.50;0.20;;;;;;;25.65;37.51;100368.13;5026532;28;21078;-50
2023/06/16 08:28:59;;;;;;;0.50;0.27;;;;;;;25.45;37.02;100366.31;5029529;28;20468;-50
2023/06/16 08:31:28;;;;;;;0.50;0.20;;;;;;;25.82;37.77;100361.19;5032456;28;20463;-50
2023/06/16 08:33:55;;;;;;;0.50;0.30;;;;;;;25.86;37.59;100362.59;5032359;28;20468;-50
2023/06/16 08:36:23;;;;;;;2.10;1.43;;;;;;;26.33;36.66;100370.16;5032440;28;20456;-50
2023/06/16 08:38:49;;;;;;;0.50;0.20;;;;;;;26.16;37.38;100363.50;5032284;28;20467;-50
2023/06/16 08:41:18;;;;;;;0.60;0.60;;;;;;;26.41;37.65;100368.44;5032713;28;20541;-50
2023/06/16 08:43:48;;;;;;;1.37;1.37;;;;;;;26.52;36.35;100362.84;5032466;28;20468;-50
2023/06/16 08:46:15;;;;;;;0.50;0.20;;;;;;;26.40;36.72;100360.41;5032133;28;20527;-50
2023/06/16 08:48:42;;;;;;;0.50;0.23;;;;;;;26.63;35.96;100359.09;5033921;28;20470;-50
2023/06/16 08:51:16;;;;;;;0.50;0.20;;;;;;;27.03;35.41;100366.25;5031978;28;20463;-50
2023/06/16 08:53:46;;;;;;;0.50;0.20;;;;;;;26.79;35.03;100359.38;5032489;28;20463;-50
2023/06/16 08:56:17;;;;;;;0.50;0.20;;;;;;;26.96;33.93;100365.94;5032184;28;20488;-50
2023/06/16 08:58:47;;;;;;;0.50;0.30;;;;;;;27.18;34.74;100353.84;5032165;28;20506;-51
2023/06/16 09:01:14;;;;;;;0.50;0.20;;;;;;;26.85;35.46;100352.44;5031889;28;20463;-50
2023/06/16 09:03:42;;;;;;;0.50;0.20;;;;;;;26.79;35.15;100355.78;5035226;28;20550;-50
2023/06/16 09:06:10;;;;;;;0.50;0.20;;;;;;;27.35;34.46;100349.47;5039814;28;21004;-50
2023/06/16 09:08:37;;;;;;;0.50;0.20;;;;;;;27.35;34.43;100354.94;5031941;28;20472;-50
2023/06/16 09:11:07;;;;;;;0.50;0.20;;;;;;;26.93;35.67;100359.91;5031800;28;20464;-51
2023/06/16 09:13:34;;;;;;;0.50;0.23;;;;;;;27.48;34.89;100360.06;5031991;28;20976;-50
2023/06/16 09:16:00;;;;;;;0.50;0.20;;;;;;;26.61;34.70;100355.69;5031684;28;20518;-50
2023/06/16 09:18:37;;;;;;;0.50;0.30;;;;;;;27.37;34.23;100356.50;5024068;28;20471;-50
2023/06/16 09:21:08;;;;;;;0.50;0.20;;;;;;;27.43;33.79;100352.31;5032098;28;20486;-50
2023/06/16 09:23:35;;;;;;;0.50;0.20;;;;;;;26.82;34.76;100345.44;5031808;28;20907;-50
2023/06/16 09:26:12;;;;;;;0.50;0.30;;;;;;;26.72;35.16;100350.03;5031456;28;20499;-50
2023/06/16 09:28:39;;;;;;;0.50;0.20;;;;;;;26.46;35.87;100346.22;5032074;28;20491;-50
2023/06/16 09:31:08;;;;;;;0.50;0.30;;;;;;;26.00;36.56;100345.00;5031657;28;20941;-50
2023/06/16 09:33:40;;;;;;;0.50;0.20;;;;;;;26.10;36.10;100342.28;5031957;28;20460;-50
2023/06/16 09:36:08;;;;;;;0.50;0.20;;;;;;;26.30;36.54;100330.38;5042119;28;20487;-50
2023/06/16 09:38:36;;;;;;;0.50;0.20;;;;;;;26.95;35.76;100339.66;5031766;28;20467;-50
2023/06/16 09:41:16;;;;;;;0.50;0.20;;;;;;;27.32;35.53;100339.72;5036378;28;20562;-50
2023/06/16 09:43:43;;;;;;;0.50;0.23;;;;;;;27.42;34.82;100340.53;5032192;28;20459;-51
2023/06/16 09:46:12;;;;;;;0.50;0.30;;;;;;;27.63;34.64;100329.34;5042867;28;20501;-50
2023/06/16 09:48:50;;;;;;;0.50;0.30;;;;;;;27.38;34.29;100324.59;5035390;28;20597;-50
2023/06/16 09:51:18;;;;;;;0.50;0.20;;;;;;;27.28;34.46;100324.66;5043116;28;20495;-50
2023/06/16 09:53:46;;;;;;;0.50;0.30;;;;;;;27.28;34.47;100324.66;5035495;28;20988;-50
2023/06/16 09:56:16;;;;;;;0.50;0.20;;;;;;;26.63;34.65;100320.94;5027270;28;20492;-50
2023/06/16 09:58:45;;;;;;;0.50;0.30;;;;;;;27.01;34.71;100327.34;5035032;28;20543;-50
2023/06/16 10:01:13;;;;;;;0.50;0.20;;;;;;;27.19;34.28;100322.81;5035329;28;20491;-51
2023/06/16 10:03:41;;;;;;;0.50;0.20;;;;;;;27.41;34.53;100321.53;5035177;28;21010;-50
2023/06/16 10:06:15;;;;;;;0.50;0.30;;;;;;;27.53;33.84;100316.75;5034894;28;20487;-50
2023/06/16 10:08:42;;;;;;;0.50;0.30;;;;;;;27.52;34.51;100315.88;5040328;28;20485;-50
2023/06/16 10:11:11;;;;;;;0.50;0.20;;;;;;;28.01;32.46;100317.34;5035233;28;20443;-50
2023/06/16 10:13:40;;;;;;;0.50;0.30;;;;;;;28.00;32.90;100315.63;5035033;28;20463;-50
2023/06/16 10:16:12;;;;;;;0.50;0.27;;;;;;;27.82;32.68;100311.13;5035330;28;20483;-50
2023/06/16 10:18:41;;;;;;;0.50;0.30;;;;;;;28.35;32.65;100316.66;5027162;28;20463;-50
2023/06/16 10:21:10;;;;;;;0.50;0.23;;;;;;;28.05;31.30;100312.41;5039169;28;20550;-50
2023/06/16 10:23:37;;;;;;;0.50;0.30;;;;;;;27.68;31.58;100304.31;5027090;28;20502;-50
2023/06/16 10:26:05;;;;;;;0.50;0.40;;;;;;;28.07;33.01;100314.97;5034769;28;20862;-50
2023/06/16 10:28:35;;;;;;;0.50;0.30;;;;;;;28.12;31.45;100304.47;5034971;28;20498;-50
2023/06/16 10:31:04;;;;;;;0.50;0.20;;;;;;;28.40;31.34;100305.25;5034814;28;20551;-50
2023/06/16 10:33:56;;;;;;;0.50;0.20;;;;;;;27.76;31.13;100301.69;5026640;28;20468;-50
2023/06/16 10:36:38;;;;;;;0.50;0.20;;;;;;;27.99;31.83;100305.72;5041393;28;20897;-51
2023/06/16 10:39:12;;;;;;;0.50;0.30;;;;;;;28.44;31.47;100292.97;5034642;28;20466;-50
2023/06/16 10:41:53;;;;;;;0.50;0.20;;;;;;;28.73;31.68;100299.00;5038280;28;20469;-50
2023/06/16 10:44:26;;;;;;;0.50;0.30;;;;;;;28.77;30.45;100289.44;5033364;28;20471;-50
2023/06/16 10:47:07;;;;;;;0.50;0.20;;;;;;;28.84;31.41;100301.47;5028626;28;20502;-50
2023/06/16 10:49:47;;;;;;;0.50;0.30;;;;;;;28.39;31.23;100292.59;5034304;28;20546;-50
2023/06/16 10:52:34;;;;;;;0.50;0.30;;;;;;;28.02;31.92;100291.72;5033596;28;20506;-50
2023/06/16 10:55:17;;;;;;;0.50;0.30;;;;;;;28.33;31.68;100291.34;5026106;28;20525;-51
2023/06/16 10:57:46;;;;;;;0.50;0.20;;;;;;;27.57;32.21;100280.81;5034394;28;20831;-50
2023/06/16 11:00:14;;;;;;;0.50;0.30;;;;;;;28.08;31.17;100271.09;5044558;28;20467;-50
2023/06/16 11:02:52;;;;;;;0.50;0.30;;;;;;;28.09;31.29;100289.22;5042234;28;20541;-50
2023/06/16 11:05:22;;;;;;;0.50;0.30;;;;;;;28.07;31.37;100290.38;5033986;28;20861;-50
2023/06/16 11:08:01;;;;;;;0.50;0.30;;;;;;;28.32;30.96;100276.81;5034338;28;20502;-50
2023/06/16 11:10:27;;;;;;;0.50;0.20;;;;;;;28.35;30.28;100283.84;5044314;28;20473;-50
2023/06/16 11:12:54;;;;;;;0.50;0.20;;;;;;;28.22;30.75;100283.34;5033732;28;20522;-50
2023/06/16 11:15:21;;;;;;;0.50;0.30;;;;;;;28.41;31.45;100285.94;5033894;28;20492;-50
2023/06/16 11:17:47;;;;;;;0.50;0.20;;;;;;;28.08;30.32;100279.28;5042032;28;20532;-51
2023/06/16 11:20:15;;;;;;;0.50;0.23;;;;;;;28.09;30.57;100289.22;5033911;28;20452;-50
2023/06/16 11:22:43;;;;;;;0.50;0.30;;;;;;;27.94;31.16;100275.22;5033644;28;20463;-50
2023/06/16 11:25:09;;;;;;;0.50;0.20;;;;;;;28.31;31.76;100288.75;5033389;28;20580;-50
2023/06/16 11:27:37;;;;;;;0.50;0.30;;;;;;;28.36;31.15;100273.75;5033747;28;20578;-50
2023/06/16 11:30:05;;;;;;;0.50;0.30;;;;;;;27.78;30.14;100276.94;5033758;28;20554;-50